Terminal Aerodrome Forecast
Issued by NWS

Home | Current Version | Previous Version | Text Only | Print | Product List | Glossary On
Versions: 1 2 3 4 5 6 7 8 9 10 11 12 13
000
FTUS43 KDMX 062336
TAFMCW
TAF
KMCW 062336Z 0700/0724 25013KT P6SM FEW120
     FM070600 33011KT P6SM BKN120
     FM070800 34011KT P6SM VCSH BKN080
     FM071100 36011KT P6SM BKN100=

USA.gov is the U.S. government's official web portal to all federal, state and local government web resources and services.